Time;durP1;ratioP1;P1;durP2;ratioP2;P2;SDS_P1;SDS_P2;PMS_P1;PMS_P2;Temp;Humidity;BMP_temperature;BMP_pressure;BME280_temperature;BME280_humidity;BME280_pressure;Samples;Min_cycle;Max_cycle;Signal;HPM_P1;HPM_P2
2021/01/02 00:02:03;;;;;;;8.77;5.43;;;;;;;;;;4848933;29;20238;-91
2021/01/02 00:04:54;;;;;;;8.77;5.17;;;;;;;;;;4836184;29;20415;-92
2021/01/02 00:07:57;;;;;;;9.20;5.97;;;;;;;;;;4843656;29;20214;-93
2021/01/02 00:10:32;;;;;;;10.60;5.63;;;;;;;;;;4855110;29;20246;-93
2021/01/02 00:13:06;;;;;;;10.07;6.00;;;;;;;;;;4836096;29;20241;-94
2021/01/02 00:15:39;;;;;;;10.70;5.87;;;;;;;;;;4855213;29;20231;-92
2021/01/02 00:18:18;;;;;;;8.53;5.33;;;;;;;;;;4870449;29;20267;-93
2021/01/02 00:21:11;;;;;;;15.13;6.97;;;;;;;;;;4847672;29;20222;-93
2021/01/02 00:23:58;;;;;;;10.27;6.10;;;;;;;;;;4855394;29;20216;-93
2021/01/02 00:26:34;;;;;;;8.63;5.30;;;;;;;;;;4841032;29;20214;-93
2021/01/02 00:29:04;;;;;;;9.33;5.63;;;;;;;;;;4837144;29;20234;-93
2021/01/02 00:31:52;;;;;;;10.47;6.20;;;;;;;;;;4848825;29;20225;-93
2021/01/02 00:34:35;;;;;;;9.83;5.80;;;;;;;;;;4841310;29;20228;-93
2021/01/02 00:37:04;;;;;;;8.77;5.70;;;;;;;;;;4856505;29;20222;-93
2021/01/02 00:39:45;;;;;;;9.63;5.93;;;;;;;;;;4842372;29;20222;-94
2021/01/02 00:42:14;;;;;;;13.43;7.07;;;;;;;;;;4836824;29;20220;-93
2021/01/02 00:44:42;;;;;;;10.80;6.87;;;;;;;;;;4861749;29;20215;-92
2021/01/02 00:47:11;;;;;;;11.60;6.30;;;;;;;;;;4848968;29;20222;-94
2021/01/02 00:49:39;;;;;;;10.30;6.20;;;;;;;;;;4838260;29;20213;-94
2021/01/02 00:52:14;;;;;;;12.17;6.30;;;;;;;;;;4860008;29;20217;-93
2021/01/02 00:54:49;;;;;;;9.57;5.50;;;;;;;;;;4855769;29;20218;-93
2021/01/02 00:57:32;;;;;;;8.83;5.33;;;;;;;;;;4840739;29;20221;-93
2021/01/02 01:00:06;;;;;;;10.23;6.63;;;;;;;;;;4844850;29;20225;-92
2021/01/02 01:02:58;;;;;;;11.03;6.90;;;;;;;;;;4838085;29;20234;-93
2021/01/02 01:05:30;;;;;;;9.77;6.10;;;;;;;;;;4839209;29;20219;-93
2021/01/02 01:07:59;;;;;;;10.27;6.70;;;;;;;;;;4861565;29;20213;-92
2021/01/02 01:10:28;;;;;;;10.97;6.10;;;;;;;;;;4840749;29;20218;-92
2021/01/02 01:13:05;;;;;;;10.03;6.57;;;;;;;;;;4834511;29;20219;-92
2021/01/02 01:15:33;;;;;;;10.10;6.40;;;;;;;;;;4836818;29;20222;-93
2021/01/02 01:18:31;;;;;;;10.90;6.13;;;;;;;;;;4846739;29;20236;-92
2021/01/02 01:21:00;;;;;;;11.77;6.60;;;;;;;;;;4839737;29;20226;-93
2021/01/02 01:23:56;;;;;;;9.57;5.90;;;;;;;;;;4845748;29;20206;-93
2021/01/02 01:26:45;;;;;;;10.83;6.90;;;;;;;;;;4838495;29;20217;-93
2021/01/02 01:29:18;;;;;;;10.87;7.07;;;;;;;;;;4835236;29;20238;-93
2021/01/02 01:31:47;;;;;;;11.17;7.23;;;;;;;;;;4863707;29;20217;-93
2021/01/02 01:34:21;;;;;;;11.33;6.93;;;;;;;;;;4856261;29;20229;-93
2021/01/02 01:36:50;;;;;;;12.80;7.57;;;;;;;;;;4862186;29;25495;-93
2021/01/02 01:39:21;;;;;;;11.67;6.90;;;;;;;;;;4859052;29;20206;-92
2021/01/02 01:41:54;;;;;;;12.80;6.97;;;;;;;;;;4840245;29;20228;-93
2021/01/02 01:44:45;;;;;;;11.10;6.93;;;;;;;;;;4847275;29;21055;-92
2021/01/02 01:47:18;;;;;;;13.37;7.57;;;;;;;;;;4856628;29;20210;-93
2021/01/02 01:50:15;;;;;;;11.83;6.93;;;;;;;;;;4857459;29;20242;-93
2021/01/02 01:53:11;;;;;;;12.67;7.17;;;;;;;;;;4838698;29;20217;-93
2021/01/02 01:55:51;;;;;;;14.33;9.03;;;;;;;;;;4843689;29;20229;-92
2021/01/02 01:58:43;;;;;;;12.77;7.23;;;;;;;;;;4845215;29;20210;-94
2021/01/02 02:01:16;;;;;;;11.07;7.30;;;;;;;;;;4856933;29;20233;-93
2021/01/02 02:03:48;;;;;;;11.97;7.17;;;;;;;;;;4863648;29;20229;-93
2021/01/02 02:06:25;;;;;;;11.87;6.73;;;;;;;;;;4862393;29;20242;-93
2021/01/02 02:08:58;;;;;;;12.77;7.30;;;;;;;;;;4865504;29;20224;-93
2021/01/02 02:11:44;;;;;;;12.60;7.33;;;;;;;;;;4856661;29;20238;-93
2021/01/02 02:14:15;;;;;;;12.27;7.07;;;;;;;;;;4840657;29;20247;-93
2021/01/02 02:16:46;;;;;;;13.40;8.07;;;;;;;;;;4851093;29;20221;-94
2021/01/02 02:19:40;;;;;;;12.07;7.20;;;;;;;;;;4848932;29;20218;-93
2021/01/02 02:22:16;;;;;;;13.53;7.63;;;;;;;;;;4857588;29;20214;-92
2021/01/02 02:24:44;;;;;;;10.40;6.77;;;;;;;;;;4854159;29;20225;-93
2021/01/02 02:27:13;;;;;;;13.20;7.80;;;;;;;;;;4840481;29;20410;-93
2021/01/02 02:29:52;;;;;;;10.53;7.27;;;;;;;;;;4845131;29;20233;-92
2021/01/02 02:32:22;;;;;;;13.00;7.90;;;;;;;;;;4846758;29;20237;-92
2021/01/02 02:34:51;;;;;;;12.63;7.63;;;;;;;;;;4841003;29;20239;-93
2021/01/02 02:37:20;;;;;;;11.47;6.77;;;;;;;;;;4845984;29;20230;-91
2021/01/02 02:39:48;;;;;;;12.27;7.80;;;;;;;;;;4842768;29;20210;-93
2021/01/02 02:42:16;;;;;;;13.83;7.60;;;;;;;;;;4862911;29;20219;-91
2021/01/02 02:44:46;;;;;;;13.00;7.87;;;;;;;;;;4865371;29;20218;-93
2021/01/02 02:47:16;;;;;;;14.63;8.47;;;;;;;;;;4847014;29;20244;-93
2021/01/02 02:49:48;;;;;;;12.40;7.20;;;;;;;;;;4849496;29;20224;-92
2021/01/02 02:52:22;;;;;;;12.87;7.40;;;;;;;;;;4856823;29;20222;-93
2021/01/02 02:54:51;;;;;;;13.33;8.07;;;;;;;;;;4861986;29;20264;-92
2021/01/02 02:57:20;;;;;;;12.83;8.23;;;;;;;;;;4851181;29;20224;-93
2021/01/02 02:59:49;;;;;;;11.93;7.27;;;;;;;;;;4847522;29;20225;-91
2021/01/02 03:02:17;;;;;;;14.37;7.87;;;;;;;;;;4836505;29;20273;-93
2021/01/02 03:04:45;;;;;;;13.83;8.07;;;;;;;;;;4844871;29;20222;-93
2021/01/02 03:07:13;;;;;;;13.63;8.00;;;;;;;;;;4854094;29;20223;-92
2021/01/02 03:09:41;;;;;;;13.93;7.70;;;;;;;;;;4850533;29;20224;-93
2021/01/02 03:12:09;;;;;;;13.57;8.23;;;;;;;;;;4848998;29;20233;-93
2021/01/02 03:14:37;;;;;;;13.50;8.13;;;;;;;;;;4845722;29;20472;-93
2021/01/02 03:17:05;;;;;;;12.73;7.70;;;;;;;;;;4855321;29;20232;-93
2021/01/02 03:19:33;;;;;;;14.30;8.10;;;;;;;;;;4841420;29;20231;-91
2021/01/02 03:22:03;;;;;;;14.40;8.00;;;;;;;;;;4857764;29;20225;-93
2021/01/02 03:24:31;;;;;;;15.30;8.23;;;;;;;;;;4841869;29;20223;-91
2021/01/02 03:27:00;;;;;;;14.27;8.90;;;;;;;;;;4849797;29;20221;-92
2021/01/02 03:29:29;;;;;;;14.37;8.53;;;;;;;;;;4837735;29;20234;-93
2021/01/02 03:31:58;;;;;;;13.43;8.40;;;;;;;;;;4860685;29;20223;-92
2021/01/02 03:34:26;;;;;;;14.93;8.60;;;;;;;;;;4848756;29;20222;-94
2021/01/02 03:36:55;;;;;;;15.40;8.80;;;;;;;;;;4848863;29;20225;-92
2021/01/02 03:39:24;;;;;;;14.80;8.40;;;;;;;;;;4851431;29;20214;-92
2021/01/02 03:41:52;;;;;;;13.30;8.53;;;;;;;;;;4847457;29;20234;-92
2021/01/02 03:44:20;;;;;;;20.10;9.13;;;;;;;;;;4860710;29;20218;-93
2021/01/02 03:46:48;;;;;;;13.60;8.13;;;;;;;;;;4858605;29;20485;-92
2021/01/02 03:49:16;;;;;;;14.03;8.97;;;;;;;;;;4850169;29;20210;-92
2021/01/02 03:51:44;;;;;;;11.90;7.87;;;;;;;;;;4857255;29;20215;-93
2021/01/02 03:54:12;;;;;;;15.23;9.10;;;;;;;;;;4860402;29;20237;-93
2021/01/02 03:56:40;;;;;;;15.30;8.70;;;;;;;;;;4846515;29;20222;-93
2021/01/02 03:59:08;;;;;;;15.33;8.70;;;;;;;;;;4863555;29;20222;-93
2021/01/02 04:01:36;;;;;;;16.83;9.13;;;;;;;;;;4835735;29;20215;-93
2021/01/02 04:04:04;;;;;;;16.97;9.17;;;;;;;;;;4856782;29;20223;-93
2021/01/02 04:06:32;;;;;;;15.07;8.30;;;;;;;;;;4844535;29;20220;-93
2021/01/02 04:09:00;;;;;;;16.57;8.77;;;;;;;;;;4861412;29;20251;-92
2021/01/02 04:11:28;;;;;;;13.53;8.60;;;;;;;;;;4862122;29;20250;-92
2021/01/02 04:13:57;;;;;;;14.00;8.20;;;;;;;;;;4841751;29;20227;-93
2021/01/02 04:16:56;;;;;;;15.77;8.73;;;;;;;;;;4846965;29;20233;-93
2021/01/02 04:45:36;;;;;;;15.43;8.23;;;;;;;;;;5174639;23;20238;-79
2021/01/02 04:48:08;;;;;;;15.00;8.60;;;;;;;;;;4854746;29;20214;-79
2021/01/02 04:50:41;;;;;;;15.87;8.57;;;;;;;;;;4858152;29;20211;-79
2021/01/02 04:54:00;;;;;;;12.93;7.93;;;;;;;;;;4822931;29;20234;-78
2021/01/02 04:56:33;;;;;;;14.67;8.37;;;;;;;;;;4826272;29;20220;-79
2021/01/02 04:59:10;;;;;;;14.80;8.47;;;;;;;;;;4809103;29;20207;-79
2021/01/02 05:01:42;;;;;;;15.33;8.23;;;;;;;;;;4824229;29;20223;-79
2021/01/02 05:04:14;;;;;;;13.83;7.97;;;;;;;;;;4809224;29;20231;-79
2021/01/02 05:06:45;;;;;;;15.50;8.53;;;;;;;;;;4838491;29;20207;-79
2021/01/02 05:09:15;;;;;;;14.87;8.73;;;;;;;;;;4832254;29;20207;-79
2021/01/02 05:43:42;;;;;;;15.80;8.43;;;;;;;;;;4806731;29;20611;-80
2021/01/02 05:46:15;;;;;;;17.83;9.60;;;;;;;;;;4789914;29;20217;-80
2021/01/02 05:48:47;;;;;;;13.40;8.37;;;;;;;;;;4808508;29;20239;-79
2021/01/02 05:51:22;;;;;;;14.77;8.43;;;;;;;;;;4791031;30;20232;-80
2021/01/02 05:54:09;;;;;;;16.37;8.13;;;;;;;;;;4807923;29;20247;-80
2021/01/02 05:56:47;;;;;;;16.43;8.63;;;;;;;;;;4793364;29;20215;-79
2021/01/02 05:59:28;;;;;;;14.67;8.27;;;;;;;;;;4794379;29;20204;-78
2021/01/02 06:25:08;;;;;;;14.53;7.67;;;;;;;;;;5712994;24;20239;-81
2021/01/02 06:27:39;;;;;;;14.47;8.73;;;;;;;;;;4841589;29;20242;-80
2021/01/02 06:30:09;;;;;;;14.37;8.23;;;;;;;;;;4843866;29;20211;-80
2021/01/02 06:35:58;;;;;;;15.67;9.00;;;;;;;;;;5873552;24;20628;31
2021/01/02 06:38:28;;;;;;;14.87;8.23;;;;;;;;;;4813053;29;20236;-80
2021/01/02 06:40:58;;;;;;;16.40;9.07;;;;;;;;;;4798050;29;20668;-80
2021/01/02 07:09:41;;;;;;;17.13;8.40;;;;;;;;;;5493694;24;20211;-93
2021/01/02 07:12:12;;;;;;;14.77;7.87;;;;;;;;;;4833113;29;20188;-91
2021/01/02 07:14:41;;;;;;;15.37;8.63;;;;;;;;;;4829237;29;20202;-92
2021/01/02 07:17:10;;;;;;;12.77;8.00;;;;;;;;;;4826838;29;20204;-93
2021/01/02 07:19:49;;;;;;;14.77;7.67;;;;;;;;;;4818804;29;20192;-92
2021/01/02 07:22:26;;;;;;;13.00;8.03;;;;;;;;;;4830388;29;20198;-92
2021/01/02 07:25:05;;;;;;;15.10;8.90;;;;;;;;;;4844650;29;20196;-91
2021/01/02 07:27:34;;;;;;;13.70;8.00;;;;;;;;;;4822874;29;20205;-92
2021/01/02 07:30:08;;;;;;;15.57;8.70;;;;;;;;;;4826640;29;20188;-91
2021/01/02 07:32:37;;;;;;;14.13;8.37;;;;;;;;;;4822295;29;20219;-92
2021/01/02 07:35:07;;;;;;;15.40;8.07;;;;;;;;;;4825496;29;20210;-93
2021/01/02 07:37:36;;;;;;;15.00;7.70;;;;;;;;;;4824834;29;20186;-91
2021/01/02 07:40:09;;;;;;;14.90;8.03;;;;;;;;;;4830316;29;20187;-92
2021/01/02 07:42:38;;;;;;;13.57;8.07;;;;;;;;;;4812163;29;20215;-92
2021/01/02 07:45:09;;;;;;;12.53;8.40;;;;;;;;;;4822637;29;20285;-92
2021/01/02 07:47:39;;;;;;;14.63;8.77;;;;;;;;;;4837850;29;20204;-92
2021/01/02 07:50:09;;;;;;;15.70;8.00;;;;;;;;;;4825234;29;20220;-92
2021/01/02 07:52:38;;;;;;;14.93;7.90;;;;;;;;;;4826040;29;20200;-92
2021/01/02 07:55:08;;;;;;;15.20;8.50;;;;;;;;;;4821567;29;20203;-91
2021/01/02 07:57:36;;;;;;;13.53;8.10;;;;;;;;;;4821897;29;20205;-93
2021/01/02 08:00:07;;;;;;;14.27;8.77;;;;;;;;;;4827054;29;20200;-92
2021/01/02 08:02:40;;;;;;;13.03;7.90;;;;;;;;;;4835606;29;20207;-90
2021/01/02 08:05:11;;;;;;;15.33;8.07;;;;;;;;;;4840861;29;20208;-91
2021/01/02 08:07:39;;;;;;;14.77;8.27;;;;;;;;;;4818714;29;20208;-91
2021/01/02 08:10:12;;;;;;;12.77;7.53;;;;;;;;;;4842700;29;20202;-92
2021/01/02 08:12:47;;;;;;;13.73;7.63;;;;;;;;;;4825930;29;20199;-91
2021/01/02 08:15:18;;;;;;;13.47;7.47;;;;;;;;;;4831613;29;20216;-93
2021/01/02 08:27:19;;;;;;;14.10;8.00;;;;;;;;;;5238243;23;20631;-79
2021/01/02 08:29:51;;;;;;;14.90;8.17;;;;;;;;;;4816665;29;20694;-79
2021/01/02 08:32:24;;;;;;;14.50;8.17;;;;;;;;;;4799692;29;20233;-79
2021/01/02 08:34:55;;;;;;;16.03;9.57;;;;;;;;;;4808506;29;20328;-80
2021/01/02 08:37:29;;;;;;;15.97;8.90;;;;;;;;;;4791603;29;20209;-80
2021/01/02 08:40:09;;;;;;;13.93;8.53;;;;;;;;;;4792898;29;20209;-79
2021/01/02 08:45:52;;;;;;;14.53;8.30;;;;;;;;;;5399491;24;20226;-93
2021/01/02 08:48:20;;;;;;;14.50;8.50;;;;;;;;;;4844586;29;20201;-93
2021/01/02 08:50:51;;;;;;;13.50;7.90;;;;;;;;;;4847209;29;20217;-94
2021/01/02 08:53:27;;;;;;;23.87;9.50;;;;;;;;;;4846904;29;20242;-92
2021/01/02 09:46:32;;;;;;;15.53;8.50;;;;;;;;;;5650547;24;20239;-82
2021/01/02 09:49:17;;;;;;;13.53;7.90;;;;;;;;;;4828892;29;20690;-80
2021/01/02 09:51:49;;;;;;;13.70;7.97;;;;;;;;;;4824531;29;20213;-80
2021/01/02 09:58:12;;;;;;;14.80;8.40;;;;;;;;;;4827197;29;20195;-79
2021/01/02 10:00:44;;;;;;;14.33;8.40;;;;;;;;;;4827389;29;20204;-80
2021/01/02 10:06:33;;;;;;;15.53;8.30;;;;;;;;;;4834180;29;20219;-92
2021/01/02 10:09:01;;;;;;;15.23;8.67;;;;;;;;;;4819875;29;20211;-91
2021/01/02 10:11:30;;;;;;;14.70;8.30;;;;;;;;;;4811808;29;20208;-92
2021/01/02 10:42:38;;;;;;;14.17;7.80;;;;;;;;;;4805292;29;20233;-79
2021/01/02 10:45:12;;;;;;;18.23;9.23;;;;;;;;;;4778482;30;20209;-79
2021/01/02 10:47:44;;;;;;;15.40;8.07;;;;;;;;;;4804403;29;20217;-79
2021/01/02 10:50:16;;;;;;;11.83;7.57;;;;;;;;;;4777787;30;20580;-79
2021/01/02 10:52:50;;;;;;;13.77;7.83;;;;;;;;;;4786568;30;20245;-79
2021/01/02 10:55:24;;;;;;;15.57;8.10;;;;;;;;;;4801464;29;20213;-79
2021/01/02 10:57:57;;;;;;;13.17;7.67;;;;;;;;;;4806286;29;20236;-80
2021/01/02 11:00:29;;;;;;;13.77;7.67;;;;;;;;;;4806132;29;20197;-82
2021/01/02 11:03:24;;;;;;;15.80;8.70;;;;;;;;;;4789156;23;20205;-93
2021/01/02 11:05:52;;;;;;;15.00;8.40;;;;;;;;;;4824684;29;20243;-93
2021/01/02 11:08:20;;;;;;;12.77;7.93;;;;;;;;;;4805500;29;20217;-92
2021/01/02 11:10:49;;;;;;;12.67;7.33;;;;;;;;;;4829243;29;20211;-91
2021/01/02 11:13:18;;;;;;;13.97;7.90;;;;;;;;;;4816123;29;20193;-93
2021/01/02 11:15:47;;;;;;;12.77;7.97;;;;;;;;;;4824464;29;20532;-92
2021/01/02 11:18:15;;;;;;;14.87;8.13;;;;;;;;;;4820358;29;20211;-92
2021/01/02 11:20:45;;;;;;;10.70;7.17;;;;;;;;;;4838719;29;20215;-92
2021/01/02 11:23:13;;;;;;;15.07;7.07;;;;;;;;;;4809068;29;20204;-92
2021/01/02 11:25:42;;;;;;;13.17;7.77;;;;;;;;;;4809529;29;20232;-92
2021/01/02 11:28:10;;;;;;;11.73;7.30;;;;;;;;;;4807554;29;20197;-93
2021/01/02 11:30:38;;;;;;;14.77;7.23;;;;;;;;;;4819177;29;20216;-91
2021/01/02 11:42:48;;;;;;;13.57;7.30;;;;;;;;;;4797515;29;20623;-80
2021/01/02 11:45:21;;;;;;;11.97;7.40;;;;;;;;;;4801427;29;20240;-80
2021/01/02 11:47:55;;;;;;;11.13;6.90;;;;;;;;;;4800319;29;20209;-80
2021/01/02 11:50:26;;;;;;;11.40;7.17;;;;;;;;;;4772731;30;20229;-81
2021/01/02 11:52:57;;;;;;;12.13;7.23;;;;;;;;;;4774373;30;20240;-80
2021/01/02 11:55:29;;;;;;;12.03;6.87;;;;;;;;;;4803877;29;20208;-80
2021/01/02 11:58:00;;;;;;;12.63;7.67;;;;;;;;;;4788447;29;20210;-80
2021/01/02 12:00:31;;;;;;;13.97;7.83;;;;;;;;;;4775496;30;20220;-83
2021/01/02 12:03:50;;;;;;;14.20;7.40;;;;;;;;;;4791525;30;20221;-79
2021/01/02 12:06:28;;;;;;;13.40;7.40;;;;;;;;;;4806792;29;20191;-81
2021/01/02 12:09:00;;;;;;;11.53;7.50;;;;;;;;;;4790375;30;20198;-81
2021/01/02 12:11:39;;;;;;;11.47;6.80;;;;;;;;;;4811609;29;20196;-80
2021/01/02 12:14:11;;;;;;;13.03;7.10;;;;;;;;;;4794373;30;20208;-80
2021/01/02 12:16:45;;;;;;;10.53;6.50;;;;;;;;;;4782416;30;20222;-80
2021/01/02 12:19:19;;;;;;;10.53;6.67;;;;;;;;;;4824481;29;20213;-80
2021/01/02 12:22:00;;;;;;;13.37;7.07;;;;;;;;;;4834494;23;20204;-92
2021/01/02 12:24:28;;;;;;;12.97;7.67;;;;;;;;;;4834243;29;20248;-92
2021/01/02 12:27:00;;;;;;;12.07;7.00;;;;;;;;;;4940066;24;20686;-80
2021/01/02 12:29:32;;;;;;;13.27;7.07;;;;;;;;;;4814994;29;20674;-80
2021/01/02 12:32:06;;;;;;;11.80;6.70;;;;;;;;;;4815512;29;20232;-80
2021/01/02 12:34:39;;;;;;;13.07;7.30;;;;;;;;;;4807577;29;20671;-80
2021/01/02 12:37:16;;;;;;;14.07;6.57;;;;;;;;;;4795912;29;20219;-80
2021/01/02 12:39:47;;;;;;;10.53;6.83;;;;;;;;;;4825275;29;20686;-80
2021/01/02 13:05:55;;;;;;;9.00;6.13;;;;;;;;;;5044118;23;20254;-80
2021/01/02 13:08:31;;;;;;;11.00;6.73;;;;;;;;;;4823589;29;20215;-80
2021/01/02 13:11:02;;;;;;;12.07;6.93;;;;;;;;;;4827406;29;20206;-81
2021/01/02 13:13:33;;;;;;;11.47;6.97;;;;;;;;;;4826179;29;20230;-80
2021/01/02 13:16:05;;;;;;;11.13;6.77;;;;;;;;;;4822389;29;20233;-80
2021/01/02 13:18:36;;;;;;;9.83;5.97;;;;;;;;;;4826784;29;20608;-80
2021/01/02 13:21:10;;;;;;;10.47;6.23;;;;;;;;;;4827262;29;20664;-80
2021/01/02 13:23:41;;;;;;;10.60;6.17;;;;;;;;;;4827244;29;20230;-80
2021/01/02 13:26:14;;;;;;;9.77;5.93;;;;;;;;;;4841390;29;20215;-80
2021/01/02 13:28:46;;;;;;;10.50;6.00;;;;;;;;;;4841991;29;20211;-80
2021/01/02 13:31:18;;;;;;;11.57;6.50;;;;;;;;;;4827226;29;20579;-80
2021/01/02 13:34:12;;;;;;;11.07;6.13;;;;;;;;;;4841604;29;20199;-80
2021/01/02 13:37:13;;;;;;;10.43;5.53;;;;;;;;;;4827170;29;20214;-80
2021/01/02 13:39:44;;;;;;;8.67;5.60;;;;;;;;;;4841721;29;20696;-82
2021/01/02 13:42:18;;;;;;;11.03;6.67;;;;;;;;;;4827070;29;20246;-80
2021/01/02 13:44:49;;;;;;;8.90;5.10;;;;;;;;;;4827318;29;20728;-80
2021/01/02 13:47:22;;;;;;;8.43;5.40;;;;;;;;;;4828774;29;20559;-80
2021/01/02 13:49:56;;;;;;;9.63;5.60;;;;;;;;;;4828275;29;20211;-80
2021/01/02 14:21:28;;;;;;;8.40;5.20;;;;;;;;;;5334565;24;20246;-80
2021/01/02 14:23:58;;;;;;;8.93;5.67;;;;;;;;;;4823172;29;20238;-79
2021/01/02 14:26:30;;;;;;;8.53;5.60;;;;;;;;;;4807111;29;20214;-80
2021/01/02 14:29:02;;;;;;;9.13;5.57;;;;;;;;;;4818342;29;20207;-79
2021/01/02 14:31:34;;;;;;;8.90;5.30;;;;;;;;;;4813421;29;20211;-79
2021/01/02 14:34:07;;;;;;;9.33;5.13;;;;;;;;;;4824442;29;20236;-80
2021/01/02 14:36:41;;;;;;;9.10;5.37;;;;;;;;;;4812334;29;20211;-79
2021/01/02 14:39:13;;;;;;;8.93;5.80;;;;;;;;;;4814348;29;20215;-79
2021/01/02 14:41:44;;;;;;;8.53;5.27;;;;;;;;;;4826774;29;20200;-79
2021/01/02 14:44:16;;;;;;;10.27;5.80;;;;;;;;;;4816043;29;20228;-79
2021/01/02 14:46:48;;;;;;;7.57;5.27;;;;;;;;;;4800748;29;20211;-79
2021/01/02 14:49:20;;;;;;;7.93;5.37;;;;;;;;;;4831366;29;20203;-79
2021/01/02 14:51:57;;;;;;;9.10;5.53;;;;;;;;;;4842769;29;20250;-80
2021/01/02 14:54:29;;;;;;;9.27;5.23;;;;;;;;;;4819992;29;20212;-79
2021/01/02 14:57:04;;;;;;;9.43;5.60;;;;;;;;;;4813557;29;20204;-80
2021/01/02 14:59:37;;;;;;;8.57;5.10;;;;;;;;;;4815368;29;20212;-81
2021/01/02 15:08:50;;;;;;;9.60;5.93;;;;;;;;;;4966569;23;20235;-78
2021/01/02 15:11:24;;;;;;;9.97;6.10;;;;;;;;;;4846065;29;20226;-79
2021/01/02 15:13:56;;;;;;;9.43;5.77;;;;;;;;;;4831615;29;20214;-79
2021/01/02 15:16:30;;;;;;;8.50;5.60;;;;;;;;;;4811178;29;20195;-79
2021/01/02 15:19:53;;;;;;;6.90;4.90;;;;;;;;;;4828605;29;20195;-83
2021/01/02 15:31:57;;;;;;;7.90;5.03;;;;;;;;;;5279923;24;20230;-78
2021/01/02 15:34:30;;;;;;;9.17;5.40;;;;;;;;;;4842754;29;20203;-78
2021/01/02 15:37:02;;;;;;;8.47;5.63;;;;;;;;;;4837717;29;20694;-78
2021/01/02 15:39:38;;;;;;;10.37;5.53;;;;;;;;;;4828721;29;20207;-81
2021/01/02 15:42:11;;;;;;;9.17;5.47;;;;;;;;;;4844565;29;20721;-80
2021/01/02 15:44:44;;;;;;;8.83;5.63;;;;;;;;;;4829689;29;20227;-80
2021/01/02 15:47:19;;;;;;;8.53;5.47;;;;;;;;;;4844345;29;20196;-79
2021/01/02 15:50:09;;;;;;;10.13;6.27;;;;;;;;;;4845878;29;20210;-79
2021/01/02 15:52:41;;;;;;;9.93;6.03;;;;;;;;;;4825886;29;20242;-80
2021/01/02 15:55:28;;;;;;;9.87;5.90;;;;;;;;;;4838631;29;20586;-80
2021/01/02 15:58:00;;;;;;;9.67;5.57;;;;;;;;;;4815569;29;20237;-80
2021/01/02 16:00:51;;;;;;;10.10;6.20;;;;;;;;;;4828818;29;20697;-79
2021/01/02 16:03:39;;;;;;;8.73;5.60;;;;;;;;;;4844609;29;20231;-79
2021/01/02 16:06:10;;;;;;;9.40;5.70;;;;;;;;;;4825240;29;20733;-79
2021/01/02 16:08:40;;;;;;;9.97;5.93;;;;;;;;;;4809914;29;20214;-79
2021/01/02 16:11:10;;;;;;;8.37;5.33;;;;;;;;;;4825426;29;20210;-80
2021/01/02 16:19:41;;;;;;;9.23;5.93;;;;;;;;;;4819484;29;20684;-79
2021/01/02 16:31:47;;;;;;;10.17;6.03;;;;;;;;;;5515593;24;20247;-79
2021/01/02 16:34:24;;;;;;;10.57;5.80;;;;;;;;;;4828324;29;20793;-79
2021/01/02 16:37:01;;;;;;;9.30;5.77;;;;;;;;;;4827707;29;20210;-79
2021/01/02 16:39:31;;;;;;;10.20;6.03;;;;;;;;;;4810219;29;20235;-79
2021/01/02 16:42:04;;;;;;;8.77;5.73;;;;;;;;;;4809273;29;20298;-79
2021/01/02 16:44:37;;;;;;;10.00;5.93;;;;;;;;;;4809509;29;20226;-79
2021/01/02 16:47:10;;;;;;;10.30;6.60;;;;;;;;;;4824261;29;20216;-80
2021/01/02 16:49:43;;;;;;;10.03;6.37;;;;;;;;;;4836564;29;20214;-78
2021/01/02 16:58:34;;;;;;;10.40;6.67;;;;;;;;;;5083609;24;20238;-79
2021/01/02 17:01:02;;;;;;;9.03;5.63;;;;;;;;;;4842949;29;20297;-79
2021/01/02 17:03:32;;;;;;;10.17;6.23;;;;;;;;;;4828411;29;20741;-80
2021/01/02 17:06:12;;;;;;;11.33;6.47;;;;;;;;;;4842247;29;20231;-79
2021/01/02 17:08:41;;;;;;;8.60;5.33;;;;;;;;;;4825611;29;20224;-79
2021/01/02 17:11:10;;;;;;;9.27;5.47;;;;;;;;;;4806240;29;20205;-79
2021/01/02 17:13:39;;;;;;;9.40;6.10;;;;;;;;;;4832895;29;20726;-79
2021/01/02 17:16:08;;;;;;;11.37;6.23;;;;;;;;;;4824111;29;20207;-79
2021/01/02 17:18:39;;;;;;;9.23;5.67;;;;;;;;;;4825951;29;20218;-79
2021/01/02 17:21:11;;;;;;;9.23;5.90;;;;;;;;;;4824384;29;20196;-79
2021/01/02 17:23:40;;;;;;;9.47;5.63;;;;;;;;;;4823808;29;20227;-80
2021/01/02 17:26:28;;;;;;;10.57;6.30;;;;;;;;;;4838964;29;20250;-79
2021/01/02 17:29:02;;;;;;;10.30;6.30;;;;;;;;;;4823805;29;20214;-79
2021/01/02 17:31:35;;;;;;;9.77;6.73;;;;;;;;;;4823932;29;20222;-79
2021/01/02 17:34:17;;;;;;;10.57;6.43;;;;;;;;;;4916878;24;20207;31
2021/01/02 17:36:49;;;;;;;9.70;6.20;;;;;;;;;;4822859;29;20220;-79
2021/01/02 17:39:17;;;;;;;9.67;6.73;;;;;;;;;;4823854;29;20200;-79
2021/01/02 17:41:47;;;;;;;9.03;5.80;;;;;;;;;;4815007;29;20221;-79
2021/01/02 17:44:33;;;;;;;9.57;5.97;;;;;;;;;;4776666;30;20217;-79
2021/01/02 17:47:02;;;;;;;8.87;5.73;;;;;;;;;;4809983;29;20228;-80
2021/01/02 17:49:31;;;;;;;9.77;5.33;;;;;;;;;;4793989;29;20209;-79
2021/01/02 17:52:00;;;;;;;9.27;5.73;;;;;;;;;;4807026;29;20690;-79
2021/01/02 17:54:30;;;;;;;11.00;6.77;;;;;;;;;;4776191;30;20216;-79
2021/01/02 17:56:59;;;;;;;9.20;6.00;;;;;;;;;;4776355;30;20205;-79
2021/01/02 17:59:30;;;;;;;10.50;6.33;;;;;;;;;;4795589;29;20675;-80
2021/01/02 18:02:05;;;;;;;11.03;6.90;;;;;;;;;;4799416;29;20231;-80
2021/01/02 18:04:45;;;;;;;11.07;6.87;;;;;;;;;;4795393;29;20216;-80
2021/01/02 18:07:21;;;;;;;10.40;6.13;;;;;;;;;;4797562;29;20631;-80
2021/01/02 18:09:52;;;;;;;13.93;7.10;;;;;;;;;;4802305;29;20213;-80
2021/01/02 18:12:28;;;;;;;10.67;6.73;;;;;;;;;;4795715;29;20235;-80
2021/01/02 18:14:58;;;;;;;11.70;6.63;;;;;;;;;;4809670;29;20211;-81
2021/01/02 18:17:29;;;;;;;10.50;6.93;;;;;;;;;;4806956;29;20224;-81
2021/01/02 18:19:59;;;;;;;9.03;6.50;;;;;;;;;;4788087;29;20225;-80
2021/01/02 18:22:29;;;;;;;9.40;6.67;;;;;;;;;;4788869;29;20245;-81
2021/01/02 18:24:59;;;;;;;12.47;7.47;;;;;;;;;;4778755;29;20216;-80
2021/01/02 18:27:30;;;;;;;13.57;7.90;;;;;;;;;;4781802;29;20239;-80
2021/01/02 18:29:59;;;;;;;10.83;6.93;;;;;;;;;;4780728;29;20232;-80
2021/01/02 18:32:30;;;;;;;10.57;6.90;;;;;;;;;;4782699;29;20237;-80
2021/01/02 18:35:01;;;;;;;17.40;8.10;;;;;;;;;;4775181;29;20220;-81
2021/01/02 18:37:33;;;;;;;11.30;6.90;;;;;;;;;;4786366;29;20683;-80
2021/01/02 18:40:04;;;;;;;9.90;6.30;;;;;;;;;;4781066;29;20216;-80
2021/01/02 18:42:35;;;;;;;12.77;7.10;;;;;;;;;;4795312;29;20228;-80
2021/01/02 18:45:06;;;;;;;11.27;7.10;;;;;;;;;;4806039;29;20712;-81
2021/01/02 18:47:38;;;;;;;9.37;6.20;;;;;;;;;;4773023;29;20228;-81
2021/01/02 18:50:11;;;;;;;11.00;6.43;;;;;;;;;;4801610;29;20223;-79
2021/01/02 18:52:41;;;;;;;14.50;7.20;;;;;;;;;;4774676;29;20250;-79
2021/01/02 18:55:11;;;;;;;12.73;7.30;;;;;;;;;;4792008;29;20212;-79
2021/01/02 18:57:41;;;;;;;12.20;8.27;;;;;;;;;;4782846;29;20608;-79
2021/01/02 19:00:12;;;;;;;12.97;7.30;;;;;;;;;;4801211;29;20235;-79
2021/01/02 19:02:41;;;;;;;12.63;7.40;;;;;;;;;;4794472;29;20231;-78
2021/01/02 19:05:11;;;;;;;14.13;7.57;;;;;;;;;;4796729;29;20260;-79
2021/01/02 19:07:38;;;;;;;13.70;8.47;;;;;;;;;;4772511;29;20605;-79
2021/01/02 19:10:08;;;;;;;14.87;8.13;;;;;;;;;;4783549;29;20197;-80
2021/01/02 19:12:40;;;;;;;13.70;8.43;;;;;;;;;;4773619;29;20229;-80
2021/01/02 19:15:09;;;;;;;16.43;10.00;;;;;;;;;;4780939;29;20192;-80
2021/01/02 19:17:38;;;;;;;13.07;7.97;;;;;;;;;;4788045;29;20204;-80
2021/01/02 19:20:08;;;;;;;14.53;8.27;;;;;;;;;;4761678;29;22785;-80
2021/01/02 19:22:39;;;;;;;14.20;7.77;;;;;;;;;;4779960;29;20455;-80
2021/01/02 19:25:11;;;;;;;13.90;7.70;;;;;;;;;;4771612;29;20208;-81
2021/01/02 19:27:40;;;;;;;13.17;7.30;;;;;;;;;;4788587;29;20251;-80
2021/01/02 19:30:11;;;;;;;13.57;8.20;;;;;;;;;;4788185;29;20212;-80
2021/01/02 19:32:41;;;;;;;14.90;8.57;;;;;;;;;;4767886;29;20240;-80
2021/01/02 19:35:13;;;;;;;13.47;8.20;;;;;;;;;;4788342;29;20219;-80
2021/01/02 19:37:42;;;;;;;12.50;7.37;;;;;;;;;;4788198;29;20212;-81
2021/01/02 19:40:14;;;;;;;14.37;8.13;;;;;;;;;;4774942;29;20231;-80
2021/01/02 19:42:44;;;;;;;14.43;8.13;;;;;;;;;;4784522;29;20233;-81
2021/01/02 19:45:15;;;;;;;12.50;8.13;;;;;;;;;;4799291;29;20208;-80
2021/01/02 19:47:45;;;;;;;12.00;7.53;;;;;;;;;;4791626;29;20243;-81
2021/01/02 19:50:16;;;;;;;13.37;7.77;;;;;;;;;;4773684;29;20225;-81
2021/01/02 19:52:45;;;;;;;12.77;7.37;;;;;;;;;;4788616;29;20240;-81
2021/01/02 19:55:16;;;;;;;15.40;8.80;;;;;;;;;;4786841;29;20568;-81
2021/01/02 19:57:46;;;;;;;14.13;8.37;;;;;;;;;;4790507;29;20591;-81
2021/01/02 20:00:16;;;;;;;12.43;7.83;;;;;;;;;;4787640;29;20217;-80
2021/01/02 20:02:46;;;;;;;14.83;8.43;;;;;;;;;;4789763;29;20746;-80
2021/01/02 20:05:18;;;;;;;17.17;9.00;;;;;;;;;;4790265;29;20603;-80
2021/01/02 20:07:49;;;;;;;15.63;8.73;;;;;;;;;;4793559;29;20243;-81
2021/01/02 20:10:23;;;;;;;12.77;7.77;;;;;;;;;;4798446;29;20224;-80
2021/01/02 20:12:54;;;;;;;14.50;8.03;;;;;;;;;;4790052;29;20227;-80
2021/01/02 20:15:26;;;;;;;12.10;7.37;;;;;;;;;;4770663;29;20208;-80
2021/01/02 20:17:55;;;;;;;14.50;8.63;;;;;;;;;;4780312;29;20218;-79
2021/01/02 20:20:27;;;;;;;14.83;8.37;;;;;;;;;;4791240;29;20221;-80